createdAt,value
2022-10-09T00:01:16.014Z,10.80
2022-10-09T00:03:47.270Z,10.90
2022-10-09T00:06:20.521Z,10.80
2022-10-09T00:08:47.336Z,10.90
2022-10-09T00:11:21.338Z,10.90
2022-10-09T00:13:48.490Z,10.90
2022-10-09T00:16:16.646Z,10.80
2022-10-09T00:18:44.138Z,10.80
2022-10-09T00:21:24.484Z,10.80
2022-10-09T00:23:53.558Z,10.80
2022-10-09T00:26:20.904Z,10.80
2022-10-09T00:28:48.557Z,10.80
2022-10-09T00:31:17.905Z,10.80
2022-10-09T00:33:45.206Z,10.70
2022-10-09T00:36:19.132Z,10.70
2022-10-09T00:38:48.741Z,10.70
2022-10-09T00:41:25.964Z,10.70
2022-10-09T00:43:56.048Z,10.70
2022-10-09T00:46:42.057Z,10.70
2022-10-09T00:49:11.707Z,10.70
2022-10-09T00:51:39.206Z,10.70
2022-10-09T00:54:11.708Z,10.70
2022-10-09T00:56:40.994Z,10.70
2022-10-09T00:59:13.384Z,10.60
2022-10-09T01:01:44.187Z,10.60
2022-10-09T01:04:11.436Z,10.60
2022-10-09T01:07:04.985Z,10.60
2022-10-09T01:09:56.328Z,10.60
2022-10-09T01:13:01.847Z,10.60
2022-10-09T01:15:51.811Z,10.50
2022-10-09T01:18:21.690Z,10.50
2022-10-09T01:21:17.580Z,10.60
2022-10-09T01:24:02.117Z,10.50
2022-10-09T01:27:05.702Z,10.60
2022-10-09T01:29:36.657Z,10.60
2022-10-09T01:32:09.339Z,10.50
2022-10-09T01:34:39.002Z,10.50
2022-10-09T01:37:10.117Z,10.50
2022-10-09T01:39:37.220Z,10.50
2022-10-09T01:42:04.791Z,10.50
2022-10-09T01:44:33.166Z,10.50
2022-10-09T01:47:00.432Z,10.40
2022-10-09T01:49:38.444Z,10.40
2022-10-09T01:52:21.638Z,10.40
2022-10-09T01:55:03.474Z,10.40
2022-10-09T01:57:55.936Z,10.40
2022-10-09T02:00:22.965Z,10.40
2022-10-09T02:02:54.538Z,10.40
2022-10-09T02:05:28.016Z,10.40
2022-10-09T02:07:56.668Z,10.40
2022-10-09T02:10:27.033Z,10.40
2022-10-09T02:13:00.980Z,10.30
2022-10-09T02:15:49.811Z,10.40
2022-10-09T02:18:26.756Z,10.40
2022-10-09T02:21:05.273Z,10.30
2022-10-09T02:23:33.623Z,10.30
2022-10-09T02:26:02.527Z,10.30
2022-10-09T02:28:30.466Z,10.30
2022-10-09T02:31:12.103Z,10.20
2022-10-09T02:33:41.060Z,10.20
2022-10-09T02:36:07.882Z,10.20
2022-10-09T02:38:37.118Z,10.20
2022-10-09T02:41:03.975Z,10.20
2022-10-09T02:43:30.829Z,10.20
2022-10-09T02:45:57.578Z,10.20
2022-10-09T02:48:24.336Z,10.20
2022-10-09T02:50:51.151Z,10.10
2022-10-09T02:53:20.501Z,10.20
2022-10-09T02:55:49.778Z,10.20
2022-10-09T02:58:16.621Z,10.10
2022-10-09T03:00:47.804Z,10.10
2022-10-09T03:03:16.836Z,10.10
2022-10-09T03:05:43.798Z,10.10
2022-10-09T03:08:10.823Z,10.10
2022-10-09T03:10:38.385Z,10.10
2022-10-09T03:13:05.617Z,10.10
2022-10-09T03:15:36.819Z,10.10
2022-10-09T03:18:03.885Z,10.10
2022-10-09T03:20:30.966Z,10.00
2022-10-09T03:22:57.800Z,10.10
2022-10-09T03:25:29.262Z,10.00
2022-10-09T03:27:56.075Z,10.00
2022-10-09T03:30:22.815Z,10.00
2022-10-09T03:32:49.794Z,10.00
2022-10-09T03:35:16.881Z,10.00
2022-10-09T03:37:44.266Z,10.00
2022-10-09T03:40:13.320Z,9.90
2022-10-09T03:42:42.286Z,9.90
2022-10-09T03:45:09.546Z,9.90
2022-10-09T03:47:36.277Z,9.90
2022-10-09T03:50:03.152Z,9.90
2022-10-09T03:52:29.874Z,9.90
2022-10-09T03:54:56.630Z,9.90
2022-10-09T03:57:23.398Z,9.90
2022-10-09T03:59:52.394Z,9.80
2022-10-09T04:02:19.211Z,9.80
2022-10-09T04:04:45.976Z,9.80
2022-10-09T04:07:12.702Z,9.80
2022-10-09T04:09:39.529Z,9.80
2022-10-09T04:12:08.948Z,9.80
2022-10-09T04:14:38.303Z,9.70
2022-10-09T04:17:07.426Z,9.70
2022-10-09T04:19:34.333Z,9.70
2022-10-09T04:22:01.642Z,9.70
2022-10-09T04:24:30.578Z,9.70
2022-10-09T04:26:57.625Z,9.70
2022-10-09T04:29:28.936Z,9.70
2022-10-09T04:31:55.723Z,9.70
2022-10-09T04:34:22.491Z,9.70
2022-10-09T04:36:49.276Z,9.60
2022-10-09T04:39:16.428Z,9.70
2022-10-09T04:41:43.273Z,9.60
2022-10-09T04:44:12.569Z,9.60
2022-10-09T04:46:41.730Z,9.60
2022-10-09T04:49:12.492Z,9.60
2022-10-09T04:51:44.221Z,9.50
2022-10-09T04:54:12.102Z,9.60
2022-10-09T04:56:39.423Z,9.50
2022-10-09T04:59:08.729Z,9.50
2022-10-09T05:01:40.561Z,9.50
2022-10-09T05:04:07.388Z,9.50
2022-10-09T05:06:34.161Z,9.50
2022-10-09T05:09:00.961Z,9.50
2022-10-09T05:11:27.850Z,9.50
2022-10-09T05:13:56.383Z,9.50
2022-10-09T05:16:26.666Z,9.50
2022-10-09T05:19:01.240Z,9.50
2022-10-09T05:21:33.458Z,9.50
2022-10-09T05:24:00.218Z,9.40
2022-10-09T05:26:27.729Z,9.40
2022-10-09T05:28:59.704Z,9.40
2022-10-09T05:31:28.697Z,9.40
2022-10-09T05:33:58.445Z,9.40
2022-10-09T05:36:25.267Z,9.30
2022-10-09T05:38:52.120Z,9.30
2022-10-09T05:41:20.041Z,9.30
2022-10-09T05:43:48.683Z,9.30
2022-10-09T05:46:21.660Z,9.30
2022-10-09T05:48:58.646Z,9.30
2022-10-09T05:51:30.687Z,9.20
2022-10-09T05:53:58.472Z,9.20
2022-10-09T05:56:31.675Z,9.20
2022-10-09T05:58:59.511Z,9.20
2022-10-09T06:01:28.971Z,9.20
2022-10-09T06:03:58.562Z,9.20
2022-10-09T06:06:27.843Z,9.20
2022-10-09T06:08:55.492Z,9.30
2022-10-09T06:11:28.467Z,9.30
2022-10-09T06:13:56.432Z,9.30
2022-10-09T06:16:28.700Z,9.30
2022-10-09T06:18:56.612Z,9.30
2022-10-09T06:21:24.082Z,9.30
2022-10-09T06:23:57.933Z,9.30
2022-10-09T06:26:26.528Z,9.30
2022-10-09T06:28:56.084Z,9.30
2022-10-09T06:31:27.890Z,9.30
2022-10-09T06:33:55.053Z,9.40
2022-10-09T06:36:26.845Z,9.40
2022-10-09T06:38:54.067Z,9.50
2022-10-09T06:41:28.139Z,9.50
2022-10-09T06:43:57.188Z,9.50
2022-10-09T06:46:32.841Z,9.50
2022-10-09T06:49:01.342Z,9.60
2022-10-09T06:51:32.337Z,9.60
2022-10-09T06:54:00.953Z,9.60
2022-10-09T06:56:30.047Z,9.70
2022-10-09T06:59:02.495Z,9.70
2022-10-09T07:01:32.164Z,9.80
2022-10-09T07:04:06.942Z,9.80
2022-10-09T07:06:36.879Z,9.90
2022-10-09T07:09:07.434Z,9.90
2022-10-09T07:11:39.155Z,9.90
2022-10-09T07:14:08.074Z,10.00
2022-10-09T07:16:41.036Z,10.30
2022-10-09T07:19:11.131Z,10.40
2022-10-09T07:21:39.829Z,10.50
2022-10-09T07:24:07.456Z,10.80
2022-10-09T07:26:37.256Z,11.10
2022-10-09T07:29:06.150Z,11.20
2022-10-09T07:31:33.064Z,11.40
2022-10-09T07:34:03.345Z,11.50
2022-10-09T07:36:30.132Z,11.50
2022-10-09T07:38:58.150Z,11.50
2022-10-09T07:41:27.343Z,11.40
2022-10-09T07:43:54.406Z,11.30
2022-10-09T07:46:23.338Z,11.20
2022-10-09T07:48:51.025Z,11.10
2022-10-09T07:51:22.557Z,11.10
2022-10-09T07:53:50.146Z,11.10
2022-10-09T07:56:23.501Z,11.10
2022-10-09T07:58:51.071Z,11.10
2022-10-09T08:01:20.277Z,11.20
2022-10-09T08:03:48.316Z,11.20
2022-10-09T08:06:16.054Z,11.30
2022-10-09T08:08:43.570Z,11.30
2022-10-09T08:11:16.065Z,11.50
2022-10-09T08:13:45.888Z,11.70
2022-10-09T08:16:13.579Z,12.00
2022-10-09T08:18:43.592Z,12.30
2022-10-09T08:21:17.629Z,12.70
2022-10-09T08:23:45.319Z,13.30
2022-10-09T08:26:14.807Z,13.90
2022-10-09T08:28:46.828Z,14.80
2022-10-09T08:31:15.822Z,15.50
2022-10-09T08:33:45.503Z,16.30
2022-10-09T08:36:15.195Z,16.90
2022-10-09T08:38:47.621Z,17.30
2022-10-09T08:41:26.630Z,17.90
2022-10-09T08:44:03.362Z,18.40
2022-10-09T08:46:52.585Z,18.90
2022-10-09T08:49:29.804Z,19.10
2022-10-09T08:52:01.533Z,19.50
2022-10-09T08:54:38.201Z,19.70
2022-10-09T08:57:11.060Z,20.10
2022-10-09T08:59:38.071Z,20.00
2022-10-09T09:02:16.605Z,20.10
2022-10-09T09:05:02.907Z,20.10
2022-10-09T09:08:00.196Z,20.30
2022-10-09T09:10:27.075Z,20.60
2022-10-09T09:13:02.950Z,20.60
2022-10-09T09:15:38.643Z,20.70
2022-10-09T09:18:30.567Z,20.80
2022-10-09T09:21:35.464Z,20.90
2022-10-09T09:24:12.038Z,20.80
2022-10-09T09:26:40.398Z,20.80
2022-10-09T09:29:10.640Z,21.00
2022-10-09T09:31:37.975Z,20.90
2022-10-09T09:34:24.816Z,20.80
2022-10-09T09:36:56.609Z,20.60
2022-10-09T09:42:26.344Z,20.10
2022-10-09T09:45:04.694Z,19.50
2022-10-09T09:47:35.979Z,19.30
2022-10-09T09:50:05.114Z,19.00
2022-10-09T09:52:42.026Z,18.40
2022-10-09T09:55:27.561Z,18.00
2022-10-09T09:58:02.605Z,17.50
2022-10-09T10:00:29.475Z,17.40
2022-10-09T10:03:14.379Z,17.20
2022-10-09T10:05:42.632Z,17.00
2022-10-09T10:08:22.904Z,16.90
2022-10-09T10:10:52.333Z,16.90
2022-10-09T10:13:28.333Z,16.80
2022-10-09T10:15:57.820Z,16.70
2022-10-09T10:18:28.650Z,16.50
2022-10-09T10:21:01.522Z,16.50
2022-10-09T10:23:32.984Z,16.30
2022-10-09T10:26:03.744Z,16.10
2022-10-09T10:28:56.150Z,16.10
2022-10-09T10:31:57.226Z,16.00
2022-10-09T10:34:31.788Z,15.90
2022-10-09T10:37:14.043Z,15.90
2022-10-09T10:39:46.072Z,15.80
2022-10-09T10:42:25.022Z,15.70
2022-10-09T10:45:15.077Z,15.70
2022-10-09T10:47:49.230Z,15.70
2022-10-09T10:50:17.066Z,15.60
2022-10-09T10:53:10.916Z,15.60
2022-10-09T10:56:04.863Z,15.60
2022-10-09T10:59:10.540Z,15.60
2022-10-09T11:01:54.981Z,15.60
2022-10-09T11:04:47.710Z,15.60
2022-10-09T11:07:32.481Z,15.60
2022-10-09T11:10:22.222Z,15.60
2022-10-09T11:13:14.245Z,15.60
2022-10-09T11:15:54.520Z,15.70
2022-10-09T11:18:52.733Z,15.60
2022-10-09T11:21:53.514Z,15.70
2022-10-09T11:24:39.799Z,15.70
2022-10-09T11:27:16.209Z,15.70
2022-10-09T11:29:45.279Z,15.60
2022-10-09T11:32:23.971Z,15.60
2022-10-09T11:35:15.766Z,15.50
2022-10-09T11:38:01.499Z,15.50
2022-10-09T11:40:34.785Z,15.50
2022-10-09T11:43:07.465Z,15.40
2022-10-09T11:45:45.677Z,15.40
2022-10-09T11:48:53.216Z,15.40
2022-10-09T11:51:32.705Z,15.40
2022-10-09T11:54:03.604Z,15.30
2022-10-09T11:56:33.787Z,15.30
2022-10-09T11:59:06.334Z,15.40
2022-10-09T12:01:41.464Z,15.40
2022-10-09T12:04:12.641Z,15.40
2022-10-09T12:07:01.191Z,15.40
2022-10-09T12:09:30.799Z,15.30
2022-10-09T12:12:15.745Z,15.30
2022-10-09T12:14:44.527Z,15.40
2022-10-09T12:17:38.351Z,15.40
2022-10-09T12:20:16.358Z,15.40
2022-10-09T12:23:01.419Z,15.40
2022-10-09T12:25:43.540Z,15.40
2022-10-09T12:28:23.994Z,15.40
2022-10-09T12:30:55.276Z,15.50
2022-10-09T12:33:33.523Z,15.60
2022-10-09T12:36:16.214Z,15.60
2022-10-09T12:38:43.420Z,15.60
2022-10-09T12:41:40.405Z,15.60
2022-10-09T12:44:35.307Z,15.60
2022-10-09T12:47:32.520Z,15.60
2022-10-09T12:50:24.443Z,15.50
2022-10-09T12:53:04.495Z,15.60
2022-10-09T12:55:35.778Z,15.60
2022-10-09T12:58:13.973Z,15.60
2022-10-09T13:00:41.062Z,15.60
2022-10-09T13:03:23.874Z,15.60
2022-10-09T13:05:53.289Z,15.60
2022-10-09T13:08:29.091Z,15.60
2022-10-09T13:10:56.321Z,15.60
2022-10-09T13:13:26.660Z,15.60
2022-10-09T13:16:02.901Z,15.60
2022-10-09T13:18:30.165Z,15.60
2022-10-09T13:21:03.661Z,15.60
2022-10-09T13:23:37.404Z,15.60
2022-10-09T13:26:08.499Z,15.50
2022-10-09T13:28:35.222Z,15.50
2022-10-09T13:31:08.059Z,15.50
2022-10-09T13:33:35.117Z,15.50
2022-10-09T13:36:01.884Z,15.50
2022-10-09T13:38:34.824Z,15.50
2022-10-09T13:41:08.745Z,15.50
2022-10-09T13:43:35.567Z,15.50
2022-10-09T13:46:02.485Z,15.60
2022-10-09T13:48:31.160Z,15.60
2022-10-09T13:51:00.670Z,15.50
2022-10-09T13:53:27.824Z,15.50
2022-10-09T13:56:00.809Z,15.40
2022-10-09T13:58:28.656Z,15.40
2022-10-09T14:00:55.803Z,15.40
2022-10-09T14:03:22.664Z,15.40
2022-10-09T14:05:49.681Z,15.40
2022-10-09T14:08:16.499Z,15.40
2022-10-09T14:10:44.040Z,15.40
2022-10-09T14:13:14.510Z,15.40
2022-10-09T14:15:41.902Z,15.40
2022-10-09T14:18:09.360Z,15.40
2022-10-09T14:20:36.617Z,15.40
2022-10-09T14:23:03.428Z,15.40
2022-10-09T14:25:30.412Z,15.40
2022-10-09T14:27:57.229Z,15.40
2022-10-09T14:30:26.471Z,15.40
2022-10-09T14:32:56.157Z,15.40
2022-10-09T14:35:23.152Z,15.30
2022-10-09T14:37:52.247Z,15.40
2022-10-09T14:40:21.639Z,15.40
2022-10-09T14:42:50.933Z,15.40
2022-10-09T14:45:22.518Z,15.30
2022-10-09T14:47:51.883Z,15.30
2022-10-09T14:50:18.843Z,15.30
2022-10-09T14:57:07.849Z,15.20
2022-10-09T14:59:36.638Z,15.20
2022-10-09T15:02:03.637Z,15.20
2022-10-09T15:04:30.436Z,15.20
2022-10-09T15:06:57.284Z,15.20
2022-10-09T15:09:24.115Z,15.20
2022-10-09T15:11:51.188Z,15.20
2022-10-09T15:14:18.020Z,15.20
2022-10-09T15:16:45.066Z,15.20
2022-10-09T15:19:14.416Z,15.20
2022-10-09T15:21:43.515Z,15.20
2022-10-09T15:24:10.955Z,15.20
2022-10-09T15:26:41.732Z,15.20
2022-10-09T15:29:12.264Z,15.20
2022-10-09T15:31:42.089Z,15.20
2022-10-09T15:34:14.200Z,15.20
2022-10-09T15:36:43.571Z,15.20
2022-10-09T15:39:10.512Z,15.10
2022-10-09T15:41:39.836Z,15.10
2022-10-09T15:44:19.695Z,15.00
2022-10-09T15:46:51.668Z,15.00
2022-10-09T15:49:20.837Z,15.00
2022-10-09T15:51:49.779Z,15.00
2022-10-09T15:54:16.812Z,15.00
2022-10-09T15:56:45.907Z,14.90
2022-10-09T15:59:14.169Z,14.90
2022-10-09T16:01:41.060Z,14.90
2022-10-09T16:04:07.867Z,14.90
2022-10-09T16:06:34.968Z,14.80
2022-10-09T16:09:03.953Z,14.80
2022-10-09T16:11:31.474Z,14.80
2022-10-09T16:13:59.320Z,14.80
2022-10-09T16:16:27.720Z,14.70
2022-10-09T16:18:55.402Z,14.70
2022-10-09T16:21:28.628Z,14.70
2022-10-09T16:23:59.556Z,14.70
2022-10-09T16:26:29.089Z,14.60
2022-10-09T16:28:56.191Z,14.60
2022-10-09T16:31:26.019Z,14.50
2022-10-09T16:33:55.870Z,14.50
2022-10-09T16:36:23.427Z,14.50
2022-10-09T16:38:52.376Z,14.40
2022-10-09T16:45:44.810Z,14.30
2022-10-09T16:52:44.883Z,14.20
2022-10-09T16:55:11.940Z,14.20
2022-10-09T16:57:40.768Z,14.20
2022-10-09T17:00:10.949Z,14.20
2022-10-09T17:02:37.895Z,14.20
2022-10-09T17:05:06.437Z,14.10
2022-10-09T17:07:33.897Z,14.10
2022-10-09T17:10:00.760Z,14.10
2022-10-09T17:12:30.834Z,14.10
2022-10-09T17:14:57.722Z,14.10
2022-10-09T17:17:24.503Z,14.10
2022-10-09T17:22:23.201Z,14.00
2022-10-09T17:24:52.179Z,14.00
2022-10-09T17:27:19.056Z,14.00
2022-10-09T17:29:48.312Z,13.90
2022-10-09T17:32:17.364Z,13.90
2022-10-09T17:34:45.873Z,13.90
2022-10-09T17:37:13.545Z,13.90
2022-10-09T17:39:42.235Z,13.90
2022-10-09T17:42:11.027Z,13.80
2022-10-09T17:44:37.953Z,13.80
2022-10-09T17:47:06.159Z,13.80
2022-10-09T17:49:33.053Z,13.80
2022-10-09T17:51:59.897Z,13.70
2022-10-09T17:54:29.258Z,13.70
2022-10-09T18:01:19.230Z,13.70
2022-10-09T18:03:46.147Z,13.60
2022-10-09T18:06:16.149Z,13.60
2022-10-09T18:08:43.575Z,13.60
2022-10-09T18:11:14.699Z,13.60
2022-10-09T18:13:44.334Z,13.50
2022-10-09T18:16:18.341Z,13.60
2022-10-09T18:18:46.564Z,13.50
2022-10-09T18:21:17.233Z,13.50
2022-10-09T18:23:47.459Z,13.50
2022-10-09T18:26:19.460Z,13.40
2022-10-09T18:28:48.564Z,13.40
2022-10-09T18:31:23.707Z,13.40
2022-10-09T18:33:52.059Z,13.40
2022-10-09T18:36:23.016Z,13.40
2022-10-09T18:38:54.532Z,13.40
2022-10-09T18:41:22.853Z,13.30
2022-10-09T18:43:52.615Z,13.30
2022-10-09T18:46:22.787Z,13.30
2022-10-09T18:48:52.100Z,13.20
2022-10-09T18:51:21.786Z,13.20
2022-10-09T18:54:17.160Z,13.20
2022-10-09T18:56:48.035Z,13.10
2022-10-09T18:59:18.539Z,13.10
2022-10-09T19:01:50.568Z,13.10
2022-10-09T19:04:18.905Z,13.10
2022-10-09T19:06:47.871Z,13.00
2022-10-09T19:09:14.742Z,13.00
2022-10-09T19:11:46.848Z,13.00
2022-10-09T19:14:16.967Z,12.90
2022-10-09T19:16:43.782Z,13.00
2022-10-09T19:19:10.629Z,13.00
2022-10-09T19:21:39.608Z,12.90
2022-10-09T19:24:07.279Z,12.90
2022-10-09T19:26:35.484Z,12.90
2022-10-09T19:29:04.397Z,12.90
2022-10-09T19:31:33.565Z,12.80
2022-10-09T19:34:03.510Z,12.80
2022-10-09T19:36:35.056Z,12.80
2022-10-09T19:39:04.124Z,12.80
2022-10-09T19:41:31.608Z,12.80
2022-10-09T19:44:00.402Z,12.70
2022-10-09T19:46:28.500Z,12.70
2022-10-09T19:48:56.159Z,12.70
2022-10-09T19:51:25.994Z,12.70
2022-10-09T19:53:54.867Z,12.70
2022-10-09T19:56:26.717Z,12.60
2022-10-09T19:58:54.882Z,12.60
2022-10-09T20:01:24.528Z,12.60
2022-10-09T20:04:00.462Z,12.60
2022-10-09T20:06:30.375Z,12.50
2022-10-09T20:08:57.236Z,12.50
2022-10-09T20:11:25.352Z,12.50
2022-10-09T20:13:56.587Z,12.50
2022-10-09T20:16:24.543Z,12.50
2022-10-09T20:18:51.662Z,12.50
2022-10-09T20:21:18.484Z,12.40
2022-10-09T20:23:45.684Z,12.40
2022-10-09T20:26:17.392Z,12.40
2022-10-09T20:28:44.959Z,12.40
2022-10-09T20:31:16.262Z,12.40
2022-10-09T20:33:47.060Z,12.40
2022-10-09T20:36:28.008Z,12.30
2022-10-09T20:38:57.002Z,12.30
2022-10-09T20:41:24.757Z,12.30
2022-10-09T20:43:55.524Z,12.30
2022-10-09T20:46:27.930Z,12.20
2022-10-09T20:48:54.776Z,12.20
2022-10-09T20:51:24.771Z,12.20
2022-10-09T20:53:59.451Z,12.20
2022-10-09T20:56:29.785Z,12.20
2022-10-09T20:58:59.780Z,12.20
2022-10-09T21:01:28.189Z,12.10
2022-10-09T21:04:03.257Z,12.10
2022-10-09T21:06:32.855Z,12.10
2022-10-09T21:08:59.991Z,12.10
2022-10-09T21:11:34.683Z,12.10
2022-10-09T21:14:05.661Z,12.10
2022-10-09T21:16:34.704Z,12.00
2022-10-09T21:19:03.690Z,12.00
2022-10-09T21:21:30.821Z,12.00
2022-10-09T21:23:59.099Z,12.00
2022-10-09T21:26:40.864Z,11.90
2022-10-09T21:29:11.097Z,11.90
2022-10-09T21:31:40.029Z,11.90
2022-10-09T21:34:11.480Z,11.90
2022-10-09T21:37:19.445Z,11.80
2022-10-09T21:39:37.017Z,11.80
2022-10-09T21:42:03.930Z,11.80
2022-10-09T21:44:33.267Z,11.80
2022-10-09T21:47:00.035Z,11.80
2022-10-09T21:49:27.967Z,11.80
2022-10-09T21:51:55.313Z,11.80
2022-10-09T21:54:24.407Z,11.70
2022-10-09T21:56:51.462Z,11.70
2022-10-09T21:59:20.285Z,11.60
2022-10-09T22:01:51.835Z,11.60
2022-10-09T22:04:20.951Z,11.60
2022-10-09T22:06:47.655Z,11.60
2022-10-09T22:09:14.424Z,11.50
2022-10-09T22:11:41.240Z,11.50
2022-10-09T22:14:08.080Z,11.50
2022-10-09T22:16:34.883Z,11.50
2022-10-09T22:19:04.140Z,11.50
2022-10-09T22:21:30.953Z,11.50
2022-10-09T22:23:58.790Z,11.50
2022-10-09T22:26:25.739Z,11.50
2022-10-09T22:28:52.615Z,11.50
2022-10-09T22:31:22.429Z,11.40
2022-10-09T22:33:51.241Z,11.40
2022-10-09T22:36:27.173Z,11.40
2022-10-09T22:38:56.946Z,11.40
2022-10-09T22:41:29.876Z,11.40
2022-10-09T22:44:00.501Z,11.40
2022-10-09T22:46:30.271Z,11.40
2022-10-09T22:48:57.217Z,11.30
2022-10-09T22:51:30.855Z,11.30
2022-10-09T22:54:00.818Z,11.30
2022-10-09T22:56:34.278Z,11.30
2022-10-09T22:59:03.813Z,11.20
2022-10-09T23:01:42.928Z,11.20
2022-10-09T23:04:14.047Z,11.20
2022-10-09T23:06:45.962Z,11.20
2022-10-09T23:09:14.601Z,11.10
2022-10-09T23:11:42.027Z,11.20
2022-10-09T23:14:10.297Z,11.10
2022-10-09T23:16:41.502Z,11.10
2022-10-09T23:19:08.514Z,11.10
2022-10-09T23:21:37.662Z,11.10
2022-10-09T23:24:05.712Z,11.10
2022-10-09T23:26:34.004Z,11.00
2022-10-09T23:29:04.293Z,11.00
2022-10-09T23:31:31.917Z,11.00
2022-10-09T23:33:59.057Z,11.00
2022-10-09T23:36:29.499Z,11.00
2022-10-09T23:38:57.222Z,11.00
2022-10-09T23:41:26.125Z,11.00
2022-10-09T23:43:57.919Z,11.00
2022-10-09T23:46:27.385Z,11.00
2022-10-09T23:48:57.446Z,10.90
2022-10-09T23:51:25.936Z,10.90
2022-10-09T23:53:55.475Z,10.90
2022-10-09T23:56:26.813Z,10.90
2022-10-09T23:58:55.108Z,10.90
